Time;durP1;ratioP1;P1;durP2;ratioP2;P2;SDS_P1;SDS_P2;PMS_P1;PMS_P2;Temp;Humidity;BMP_temperature;BMP_pressure;BME280_temperature;BME280_humidity;BME280_pressure;Samples;Min_cycle;Max_cycle;Signal;HPM_P1;HPM_P2
2020/12/18 00:01:02;;;;;;;11.27;10.37;;;3.70;99.90;;;4.52;90.15;98760.81;5188804;28;20194;-77
2020/12/18 00:03:35;;;;;;;11.93;10.77;;;3.60;99.90;;;4.53;89.71;98756.66;5188983;28;20201;-78
2020/12/18 00:06:07;;;;;;;12.30;11.20;;;3.60;99.90;;;4.46;89.48;98756.09;5188341;28;20199;-78
2020/12/18 00:08:39;;;;;;;11.80;10.90;;;3.50;99.90;;;4.40;89.43;98755.47;5188400;28;20198;-78
2020/12/18 00:11:20;;;;;;;11.20;10.27;;;3.50;99.90;;;4.38;89.44;98761.13;5188580;28;20201;-78
2020/12/18 00:13:53;;;;;;;11.37;10.37;;;3.50;99.90;;;4.33;89.70;98758.19;5188451;28;20230;-78
2020/12/18 00:16:26;;;;;;;12.37;11.27;;;3.50;99.90;;;4.33;89.67;98759.81;5188430;28;20197;-78
2020/12/18 00:18:58;;;;;;;11.97;10.87;;;3.50;99.90;;;4.28;90.37;98756.84;5188610;28;20233;-78
2020/12/18 00:21:30;;;;;;;11.70;10.70;;;3.50;99.90;;;4.27;90.12;98750.00;5188128;28;20210;-78
2020/12/18 00:24:02;;;;;;;12.93;11.80;;;3.40;99.90;;;4.20;90.54;98745.09;5187789;28;20221;-78
2020/12/18 00:26:35;;;;;;;12.20;11.10;;;3.50;99.90;;;4.24;91.02;98757.31;5187058;28;20213;-77
2020/12/18 00:29:09;;;;;;;12.43;11.30;;;3.50;99.90;;;4.23;91.24;98755.50;5192209;28;20202;-77
2020/12/18 00:31:41;;;;;;;11.50;10.60;;;3.50;99.90;;;4.23;91.44;98755.50;5200176;28;20205;-78
2020/12/18 00:34:13;;;;;;;12.40;11.13;;;3.50;99.90;;;4.33;90.79;98753.13;5187786;28;20243;-77
2020/12/18 00:36:51;;;;;;;11.47;10.47;;;3.50;99.90;;;4.34;90.33;98749.81;5187885;28;20201;-78
2020/12/18 00:39:23;;;;;;;11.23;10.20;;;3.40;99.90;;;4.26;89.62;98753.25;5188328;28;20675;-78
2020/12/18 00:41:56;;;;;;;11.70;10.60;;;3.30;99.90;;;4.14;89.55;98754.63;5187543;28;20205;-77
2020/12/18 00:44:28;;;;;;;12.03;10.97;;;3.20;99.90;;;4.13;89.55;98757.91;5186945;28;20235;-78
2020/12/18 00:47:00;;;;;;;11.97;10.93;;;3.20;99.90;;;4.06;89.53;98752.28;5187694;28;20585;-78
2020/12/18 00:49:32;;;;;;;10.80;9.83;;;3.20;99.90;;;3.99;89.56;98754.94;5187564;28;20208;-77
2020/12/18 00:52:04;;;;;;;11.87;10.87;;;3.10;99.90;;;3.95;89.35;98754.47;5187031;28;20215;-78
2020/12/18 00:54:36;;;;;;;12.63;11.43;;;3.10;99.90;;;3.88;89.38;98750.47;5186773;28;20226;-77
2020/12/18 00:57:09;;;;;;;12.57;11.47;;;3.00;99.90;;;3.85;89.68;98760.28;5188068;28;20209;-78
2020/12/18 00:59:41;;;;;;;12.37;11.30;;;3.00;99.90;;;3.83;89.85;98761.75;5186998;28;20199;-78
2020/12/18 01:02:13;;;;;;;12.47;11.40;;;3.00;99.90;;;3.81;89.61;98768.34;5187636;28;20205;-78
2020/12/18 01:04:45;;;;;;;12.20;11.10;;;3.00;99.90;;;3.73;89.52;98766.69;5187766;28;20226;-77
2020/12/18 01:07:17;;;;;;;12.37;11.27;;;2.90;99.90;;;3.69;89.44;98772.16;5186298;28;20195;-78
2020/12/18 01:09:49;;;;;;;11.90;11.00;;;2.90;99.90;;;3.69;89.59;98770.56;5187868;28;20224;-78
2020/12/18 01:12:22;;;;;;;12.63;11.33;;;2.90;99.90;;;3.66;89.80;98776.91;5187507;28;20222;-78
2020/12/18 01:14:54;;;;;;;11.80;10.90;;;2.90;99.90;;;3.65;90.06;98772.63;5187521;28;20218;-78
2020/12/18 01:17:26;;;;;;;12.30;11.20;;;2.90;99.90;;;3.62;89.51;98780.78;5187432;28;20664;-78
2020/12/18 01:19:58;;;;;;;12.47;11.33;;;2.80;99.90;;;3.63;89.49;98786.72;5186852;28;20231;-78
2020/12/18 01:22:30;;;;;;;12.33;11.27;;;2.80;99.90;;;3.56;89.26;98783.59;5187306;28;20200;-78
2020/12/18 01:25:03;;;;;;;12.03;11.03;;;2.80;99.90;;;3.57;89.58;98789.53;5187315;28;20224;-77
2020/12/18 01:27:35;;;;;;;11.80;10.80;;;2.80;99.90;;;3.59;90.02;98785.53;5187305;28;20208;-78
2020/12/18 01:30:07;;;;;;;12.77;11.57;;;2.80;99.90;;;3.64;89.39;98793.59;5175118;28;20680;-77
2020/12/18 01:32:39;;;;;;;12.13;11.03;;;2.80;99.90;;;3.64;89.26;98793.59;5186912;28;20220;-78
2020/12/18 01:35:11;;;;;;;13.10;11.90;;;2.70;99.90;;;3.64;89.16;98794.47;5186926;28;20228;-77
2020/12/18 01:37:43;;;;;;;13.43;12.13;;;2.70;99.90;;;3.67;89.56;98793.91;5186858;28;20216;-78
2020/12/18 01:40:15;;;;;;;13.53;12.23;;;2.80;99.90;;;3.61;89.74;98796.72;5187303;28;20196;-78
2020/12/18 01:42:48;;;;;;;12.97;11.87;;;2.80;99.90;;;3.57;89.55;98798.03;5186980;28;20411;-78
2020/12/18 01:45:20;;;;;;;18.63;11.30;;;2.80;99.90;;;3.52;89.52;98803.34;5187295;28;20234;-78
2020/12/18 01:47:53;;;;;;;12.93;11.73;;;2.70;99.90;;;3.53;90.07;98802.63;5187259;28;20192;-78
2020/12/18 01:50:25;;;;;;;12.10;11.00;;;2.70;99.90;;;3.56;88.89;98801.31;5187128;28;20588;-78
2020/12/18 01:52:57;;;;;;;13.53;12.13;;;2.70;99.90;;;3.49;89.11;98795.47;5186007;28;20219;-78
2020/12/18 01:55:30;;;;;;;12.23;11.13;;;2.60;99.90;;;3.49;89.25;98796.41;5186613;28;20274;-77
2020/12/18 01:58:03;;;;;;;13.23;11.93;;;2.70;99.90;;;3.46;89.53;98798.59;5186667;28;20200;-78
2020/12/18 02:00:36;;;;;;;13.50;12.10;;;2.60;99.90;;;3.43;89.36;98798.28;5187188;28;20197;-78
2020/12/18 02:03:08;;;;;;;12.57;11.37;;;2.60;99.90;;;3.38;90.01;98804.53;5186600;28;20209;-78
2020/12/18 02:05:40;;;;;;;14.17;12.97;;;2.50;99.90;;;3.36;89.75;98801.84;5186718;28;20212;-78
2020/12/18 02:08:12;;;;;;;14.17;12.97;;;2.50;99.90;;;3.32;89.42;98803.91;5187440;28;20571;-78
2020/12/18 02:10:44;;;;;;;12.93;11.83;;;2.50;99.90;;;3.32;89.83;98802.28;5186855;28;20197;-78
2020/12/18 02:13:17;;;;;;;13.40;12.17;;;2.50;99.90;;;3.38;89.68;98805.44;5186654;28;20225;-77
2020/12/18 02:15:51;;;;;;;12.60;11.30;;;2.60;99.90;;;3.46;89.35;98803.63;5186543;28;20203;-77
2020/12/18 02:18:24;;;;;;;12.77;11.63;;;2.50;99.90;;;3.47;89.19;98795.34;5179681;28;20206;-78
2020/12/18 02:20:56;;;;;;;12.40;11.30;;;2.50;99.90;;;3.47;88.71;98799.50;5166996;28;20279;-78
2020/12/18 02:23:28;;;;;;;12.70;11.60;;;2.60;99.90;;;3.45;88.91;98796.81;5176319;28;20694;-77
2020/12/18 02:26:08;;;;;;;13.53;12.37;;;2.60;99.90;;;3.44;89.75;98800.09;5186357;28;20195;-78
2020/12/18 02:28:43;;;;;;;12.37;11.23;;;2.60;99.90;;;3.49;89.34;98798.91;5185648;28;20191;-78
2020/12/18 02:31:16;;;;;;;13.23;11.97;;;2.70;99.90;;;3.59;89.71;98796.53;5186466;28;20190;-78
2020/12/18 02:33:48;;;;;;;13.00;11.77;;;2.80;99.90;;;3.64;89.71;98788.53;5177698;28;20226;-77
2020/12/18 02:36:26;;;;;;;13.53;12.30;;;2.90;99.90;;;3.65;89.57;98781.09;5172555;28;20186;-79
2020/12/18 02:39:00;;;;;;;13.37;12.20;;;2.80;99.90;;;3.63;89.47;98782.56;5186418;28;20594;-78
2020/12/18 02:41:33;;;;;;;13.97;12.57;;;2.90;99.90;;;3.62;89.54;98775.72;5186542;28;20203;-78
2020/12/18 02:44:05;;;;;;;12.93;11.77;;;2.90;99.90;;;3.60;89.72;98773.03;5186189;28;20216;-77
2020/12/18 02:46:37;;;;;;;13.17;12.03;;;2.90;99.90;;;3.66;90.00;98769.34;5173780;28;20201;-78
2020/12/18 02:49:08;;;;;;;14.10;12.80;;;2.90;99.90;;;3.67;90.04;98769.50;5166147;28;20685;-78
2020/12/18 02:51:41;;;;;;;13.07;11.93;;;2.90;99.90;;;3.68;90.38;98770.41;5183869;28;20200;-78
2020/12/18 02:54:13;;;;;;;12.00;11.00;;;3.00;99.90;;;3.69;89.54;98772.16;5189902;28;20694;-77
2020/12/18 02:56:46;;;;;;;13.73;12.43;;;2.80;99.90;;;3.66;89.11;98761.75;5190509;28;20217;-78
2020/12/18 02:59:18;;;;;;;13.40;12.20;;;2.80;99.90;;;3.56;89.25;98767.56;5190618;28;20203;-78
2020/12/18 03:01:50;;;;;;;13.47;12.27;;;2.80;99.90;;;3.50;89.87;98760.25;5190133;28;20206;-78
2020/12/18 03:04:22;;;;;;;12.47;11.37;;;2.80;99.90;;;3.49;89.62;98763.53;5190156;28;20303;-77
2020/12/18 03:06:54;;;;;;;12.90;11.70;;;2.80;99.90;;;3.48;89.95;98756.69;5190315;28;20297;-78
2020/12/18 03:09:26;;;;;;;12.70;11.60;;;2.80;99.90;;;3.53;90.29;98758.03;5189820;28;20202;-77
2020/12/18 03:11:59;;;;;;;13.07;11.97;;;2.80;99.90;;;3.51;89.91;98761.16;5190213;28;20205;-78
2020/12/18 03:14:31;;;;;;;14.07;12.77;;;2.80;99.90;;;3.48;89.90;98761.72;5189341;28;20226;-78
2020/12/18 03:17:03;;;;;;;12.90;11.60;;;2.80;99.90;;;3.52;90.16;98763.84;5190209;28;20839;-78
2020/12/18 03:19:35;;;;;;;12.07;11.00;;;2.80;99.90;;;3.55;90.93;98774.25;5189795;28;20198;-78
2020/12/18 03:22:07;;;;;;;12.43;11.33;;;2.90;99.90;;;3.65;90.63;98767.56;5190048;28;20205;-78
2020/12/18 03:24:39;;;;;;;13.50;12.30;;;2.90;99.90;;;3.79;89.67;98767.28;5189264;28;20225;-78
2020/12/18 03:27:12;;;;;;;13.30;12.13;;;2.90;99.90;;;3.79;88.97;98769.81;5189273;28;20671;-78
2020/12/18 03:29:43;;;;;;;12.87;11.77;;;3.00;99.90;;;3.69;89.48;98772.16;5189516;28;20655;-77
2020/12/18 03:32:15;;;;;;;13.23;12.03;;;2.90;99.90;;;3.73;89.61;98766.69;5189662;28;20677;-77
2020/12/18 03:34:48;;;;;;;12.80;11.63;;;3.00;99.90;;;3.81;90.23;98758.22;5189203;28;20230;-77
2020/12/18 03:37:20;;;;;;;11.77;10.77;;;3.00;99.90;;;3.75;89.63;98765.19;5189345;28;20200;-78
2020/12/18 03:39:52;;;;;;;13.10;11.97;;;3.00;99.90;;;3.78;89.66;98762.97;5189232;28;20196;-78
2020/12/18 03:42:24;;;;;;;13.23;11.93;;;3.10;99.90;;;3.79;89.91;98754.63;5189419;28;20222;-78
2020/12/18 03:44:56;;;;;;;13.27;11.97;;;3.10;99.90;;;3.80;89.63;98756.41;5189480;28;20598;-78
2020/12/18 03:47:28;;;;;;;13.43;12.23;;;3.10;99.90;;;3.83;90.20;98756.72;5186882;28;20668;-78
2020/12/18 03:50:00;;;;;;;14.10;12.73;;;3.10;99.90;;;3.87;90.14;98751.22;5169230;28;20211;-78
2020/12/18 03:52:33;;;;;;;14.50;13.10;;;3.20;99.90;;;3.87;90.15;98748.69;5183893;28;20552;-78
2020/12/18 03:55:05;;;;;;;14.33;12.93;;;3.20;99.90;;;3.86;90.24;98740.94;5188578;28;20595;-78
2020/12/18 03:57:37;;;;;;;14.43;13.07;;;3.20;99.90;;;3.91;89.97;98734.72;5189103;28;20197;-78
2020/12/18 04:00:10;;;;;;;14.03;12.63;;;3.20;99.90;;;3.88;90.16;98742.88;5189003;28;20206;-78
2020/12/18 04:02:42;;;;;;;13.30;12.10;;;3.20;99.90;;;3.94;90.37;98752.69;5189637;28;20218;-78
2020/12/18 04:05:14;;;;;;;14.30;13.00;;;3.20;99.90;;;3.91;90.30;98760.00;5188600;28;20225;-78
2020/12/18 04:07:46;;;;;;;13.47;12.27;;;3.20;99.90;;;3.92;90.29;98771.88;5188935;28;20199;-78
2020/12/18 04:10:18;;;;;;;13.97;12.77;;;3.20;99.90;;;3.97;90.61;98776.66;5189012;28;20588;-78
2020/12/18 04:12:51;;;;;;;13.27;11.97;;;3.30;99.90;;;4.13;90.22;98773.09;5187988;28;20209;-78
2020/12/18 04:15:23;;;;;;;13.70;12.60;;;3.30;99.90;;;4.23;89.16;98779.16;5187085;28;20329;-78
2020/12/18 04:17:55;;;;;;;13.30;12.00;;;3.30;99.90;;;4.18;88.86;98776.97;5189794;28;20535;-78
2020/12/18 04:20:27;;;;;;;13.73;12.53;;;3.20;99.90;;;4.28;87.58;98769.50;5189309;28;20196;-78
2020/12/18 04:22:59;;;;;;;13.10;11.90;;;3.10;99.90;;;4.24;87.59;98772.50;5188267;28;20197;-78
2020/12/18 04:25:31;;;;;;;13.27;12.10;;;3.10;99.90;;;4.22;87.87;98768.91;5187177;28;20985;-77
2020/12/18 04:28:04;;;;;;;12.90;11.80;;;3.10;99.90;;;4.11;87.64;98756.88;5188539;28;20210;-78
2020/12/18 04:30:36;;;;;;;13.03;11.83;;;3.10;99.90;;;3.97;88.29;98751.34;5189279;28;20268;-77
2020/12/18 04:33:08;;;;;;;14.57;13.27;;;3.10;99.90;;;3.95;88.87;98757.94;5188084;28;20229;-78
2020/12/18 04:35:40;;;;;;;13.37;12.10;;;3.10;99.90;;;3.86;88.89;98754.47;5188170;28;20217;-78
2020/12/18 04:38:13;;;;;;;14.00;12.60;;;3.00;99.90;;;3.78;89.26;98757.94;5188493;28;20205;-78
2020/12/18 04:40:45;;;;;;;13.07;11.87;;;3.00;99.90;;;3.87;89.33;98757.94;5188702;28;20262;-78
2020/12/18 04:43:18;;;;;;;14.17;12.63;;;3.10;99.90;;;3.96;89.33;98753.75;5189018;28;20278;-78
2020/12/18 04:45:57;;;;;;;13.63;12.37;;;3.10;99.90;;;3.96;89.08;98746.16;5188764;28;20677;-77
2020/12/18 04:48:30;;;;;;;12.53;11.43;;;3.10;99.90;;;4.01;88.79;98748.41;5188050;28;20571;-78
2020/12/18 04:51:04;;;;;;;12.43;11.33;;;3.10;99.90;;;3.94;88.81;98745.13;5188996;28;20216;-78
2020/12/18 04:53:49;;;;;;;12.77;11.63;;;3.10;99.90;;;3.87;88.73;98748.69;5187981;28;20306;-78
2020/12/18 04:56:23;;;;;;;13.10;11.97;;;3.00;99.90;;;3.83;89.05;98754.19;5189249;28;20237;-77
2020/12/18 04:58:57;;;;;;;12.53;11.53;;;3.00;99.90;;;3.83;89.19;98742.47;5188264;28;20203;-77
2020/12/18 05:01:29;;;;;;;13.00;11.90;;;3.00;99.90;;;3.84;89.06;98738.28;5188666;28;20210;-78
2020/12/18 05:04:03;;;;;;;13.20;12.10;;;3.00;99.90;;;3.77;89.41;98740.94;5188127;28;20211;-77
2020/12/18 05:06:35;;;;;;;13.70;12.63;;;3.00;99.90;;;3.74;89.94;98740.66;5188997;28;20231;-80
2020/12/18 05:09:07;;;;;;;13.27;12.17;;;3.00;99.90;;;3.77;90.05;98731.72;5187872;28;20219;-77
2020/12/18 05:11:39;;;;;;;13.27;12.17;;;3.00;99.90;;;3.92;89.15;98744.06;5188145;28;20256;-79
2020/12/18 05:14:12;;;;;;;13.60;12.37;;;3.00;99.90;;;3.81;89.76;98730.41;5187446;28;20233;-78
2020/12/18 05:16:46;;;;;;;13.50;12.30;;;3.00;99.90;;;3.79;90.02;98725.19;5186986;28;20202;-78
2020/12/18 05:19:18;;;;;;;13.53;12.20;;;3.10;99.90;;;3.78;90.54;98727.59;5187519;28;20669;-78
2020/12/18 05:21:51;;;;;;;12.97;11.77;;;3.00;99.90;;;3.80;90.44;98726.06;5187510;28;20204;-78
2020/12/18 05:24:26;;;;;;;13.73;12.47;;;3.10;99.90;;;3.78;90.40;98728.47;5187750;28;20221;-78
2020/12/18 05:27:00;;;;;;;14.23;13.03;;;3.10;99.90;;;3.80;90.73;98731.13;5187736;28;20207;-78
2020/12/18 05:29:37;;;;;;;13.53;12.33;;;3.10;99.90;;;3.80;90.42;98728.59;5187932;28;20198;-78
2020/12/18 05:32:13;;;;;;;15.03;13.63;;;3.10;99.90;;;3.68;91.63;98733.34;5187432;28;20207;-77
2020/12/18 05:34:45;;;;;;;14.23;12.83;;;3.00;99.90;;;3.80;91.17;98733.66;5187323;28;20227;-78
2020/12/18 05:37:17;;;;;;;14.53;13.23;;;3.00;99.90;;;3.85;90.97;98722.38;5188044;28;20208;-78
2020/12/18 05:39:50;;;;;;;15.50;14.00;;;3.10;99.90;;;3.84;90.83;98723.13;5187279;28;20305;-78
2020/12/18 05:42:22;;;;;;;15.10;13.70;;;3.10;99.90;;;3.80;90.79;98726.06;5187780;28;20200;-79
2020/12/18 05:45:12;;;;;;;14.20;12.90;;;3.10;99.90;;;3.81;91.35;98723.72;5186928;28;20216;-79
2020/12/18 05:47:59;;;;;;;15.97;14.37;;;3.10;99.90;;;3.84;90.81;98729.06;5187232;28;20249;-77
2020/12/18 05:50:37;;;;;;;14.20;12.80;;;3.10;99.90;;;3.86;90.80;98729.19;5187537;28;20207;-77
2020/12/18 05:53:12;;;;;;;13.87;12.60;;;3.20;99.90;;;3.85;91.22;98732.47;5171103;28;20227;-78
2020/12/18 05:55:45;;;;;;;14.90;13.50;;;3.20;99.90;;;3.88;91.63;98735.31;5187770;28;20230;-77
2020/12/18 05:58:25;;;;;;;14.87;13.57;;;3.20;99.90;;;3.89;91.21;98733.66;5187335;28;20202;-78
2020/12/18 06:01:04;;;;;;;14.43;13.13;;;3.20;99.90;;;3.85;91.55;98729.94;5185947;28;20206;-78
2020/12/18 06:03:38;;;;;;;15.70;14.30;;;3.20;99.90;;;3.81;91.86;98728.75;5186294;28;20196;-77
2020/12/18 06:06:12;;;;;;;15.73;14.33;;;3.10;99.90;;;3.75;91.52;98743.34;5188112;28;20199;-77
2020/12/18 06:08:45;;;;;;;16.40;14.90;;;3.10;99.90;;;3.71;91.62;98737.81;5186163;28;20203;-78
2020/12/18 06:11:19;;;;;;;16.13;14.60;;;3.00;99.90;;;3.77;92.17;98741.84;5180521;28;20202;-77
2020/12/18 06:13:52;;;;;;;16.47;14.97;;;3.10;99.90;;;3.78;91.11;98740.22;5178282;28;20738;-78
2020/12/18 06:16:26;;;;;;;16.87;15.13;;;3.10;99.90;;;3.76;91.66;98739.19;5186766;28;20204;-78
2020/12/18 06:19:06;;;;;;;16.40;14.90;;;3.10;99.90;;;3.68;91.64;98740.06;5186064;28;20212;-77
2020/12/18 06:21:38;;;;;;;15.00;13.70;;;3.10;99.90;;;3.67;91.74;98736.66;5187532;28;20211;-79
2020/12/18 06:24:10;;;;;;;14.73;13.23;;;3.00;99.90;;;3.69;90.99;98737.69;5185746;28;20662;-78
2020/12/18 06:26:44;;;;;;;15.17;13.63;;;3.00;99.90;;;3.63;91.51;98742.13;5176969;28;20204;-77
2020/12/18 06:29:19;;;;;;;15.90;14.50;;;2.90;99.90;;;3.66;91.02;98741.53;5186605;28;20206;-77
2020/12/18 06:31:53;;;;;;;13.97;12.77;;;2.90;99.90;;;3.58;90.94;98723.13;5186132;28;20199;-78
2020/12/18 06:34:27;;;;;;;16.70;14.23;;;2.90;99.90;;;3.51;91.37;98734.22;5185537;28;20235;-77
2020/12/18 06:37:02;;;;;;;17.50;15.77;;;2.90;99.90;;;3.50;91.83;98739.16;5185319;28;20199;-78
2020/12/18 06:39:35;;;;;;;16.33;14.83;;;2.90;99.90;;;3.49;91.77;98743.31;5197883;28;20588;-78
2020/12/18 06:42:16;;;;;;;16.03;14.53;;;2.90;99.90;;;3.49;92.22;98743.31;5175991;28;20203;-77
2020/12/18 06:44:50;;;;;;;17.17;15.50;;;2.90;99.90;;;3.50;92.15;98740.03;5183167;28;20219;-78
2020/12/18 06:47:30;;;;;;;17.10;15.53;;;2.90;99.90;;;3.50;92.26;98750.16;5183993;28;20199;-77
2020/12/18 06:50:11;;;;;;;16.53;14.87;;;2.90;99.90;;;3.53;92.13;98750.44;5185020;28;20603;-78
2020/12/18 06:53:05;;;;;;;17.57;15.77;;;2.90;99.90;;;3.60;92.12;98757.00;5184308;28;20202;-77
2020/12/18 06:55:41;;;;;;;15.03;13.63;;;2.90;99.90;;;3.67;91.37;98750.94;5184248;28;20221;-78
2020/12/18 06:58:17;;;;;;;17.03;15.33;;;2.80;99.90;;;3.80;90.32;98743.78;5184932;28;20223;-78
2020/12/18 07:00:53;;;;;;;16.90;15.17;;;2.80;99.90;;;3.70;89.61;98744.53;5183089;28;20226;-78
2020/12/18 07:03:38;;;;;;;15.33;13.83;;;2.70;99.90;;;3.67;89.66;98753.44;5184535;28;20198;-77
2020/12/18 07:06:21;;;;;;;15.90;14.13;;;2.70;99.90;;;3.59;90.22;98751.06;5184446;28;20210;-77
2020/12/18 07:08:56;;;;;;;14.83;13.33;;;2.70;99.90;;;3.50;89.82;98755.22;5183974;28;20578;-77
2020/12/18 07:11:31;;;;;;;14.67;13.27;;;2.60;99.90;;;3.47;90.05;98759.97;5183207;28;20196;-77
2020/12/18 07:14:04;;;;;;;14.73;13.17;;;2.60;99.90;;;3.47;89.82;98769.19;5183428;28;20226;-77
2020/12/18 07:16:36;;;;;;;14.97;13.67;;;2.60;99.90;;;3.42;89.85;98761.13;5183878;28;20203;-77
2020/12/18 07:19:12;;;;;;;15.23;13.73;;;2.60;99.90;;;3.35;89.73;98761.28;5183576;28;20686;-77
2020/12/18 07:21:44;;;;;;;23.03;20.13;;;2.50;99.90;;;3.22;89.80;98753.22;5183662;28;20313;-77
2020/12/18 07:24:16;;;;;;;18.13;16.30;;;2.40;99.90;;;3.13;89.49;98740.56;5183773;28;20217;-77
2020/12/18 07:26:50;;;;;;;16.77;15.07;;;2.40;99.90;;;3.08;90.10;98752.72;5183490;28;20304;-77
2020/12/18 07:29:23;;;;;;;17.13;15.33;;;2.30;99.90;;;3.16;89.56;98744.28;5183367;28;20194;-77
2020/12/18 07:31:56;;;;;;;15.50;14.10;;;2.40;99.90;;;3.17;90.61;98745.16;5183624;28;20278;-77
2020/12/18 07:34:28;;;;;;;15.43;14.00;;;2.40;99.90;;;3.18;90.43;98744.44;5183149;28;20590;-77
2020/12/18 07:37:11;;;;;;;15.80;14.40;;;2.40;99.90;;;3.20;90.51;98747.09;5183165;28;20659;-77
2020/12/18 07:39:43;;;;;;;14.50;13.00;;;2.50;99.90;;;3.13;90.61;98746.50;5185121;28;20213;-77
2020/12/18 07:42:16;;;;;;;15.07;13.67;;;2.40;99.90;;;3.23;90.09;98750.81;5187268;28;20200;-77
2020/12/18 07:44:48;;;;;;;16.57;14.87;;;2.50;99.90;;;3.26;90.71;98752.75;5187311;28;20272;-78
2020/12/18 07:47:21;;;;;;;15.80;14.23;;;2.50;99.90;;;3.28;90.55;98756.34;5180829;28;20196;-77
2020/12/18 07:49:54;;;;;;;15.20;13.70;;;2.50;99.90;;;3.31;90.45;98751.59;5186912;28;20203;-77
2020/12/18 07:52:27;;;;;;;15.03;13.57;;;2.60;99.90;;;3.26;90.84;98747.72;5173279;28;20203;-76
2020/12/18 07:54:59;;;;;;;14.50;13.10;;;2.50;99.90;;;3.33;90.31;98750.13;5183502;28;20655;-76
2020/12/18 07:57:32;;;;;;;14.90;13.53;;;2.50;99.90;;;3.39;89.62;98751.63;5181256;28;20201;-77
2020/12/18 08:00:07;;;;;;;15.30;14.00;;;2.40;99.90;;;3.42;88.78;98756.09;5186312;28;20299;-78
2020/12/18 08:02:39;;;;;;;15.80;14.40;;;2.40;99.90;;;3.36;88.15;98756.38;5166975;28;20196;-77
2020/12/18 08:05:12;;;;;;;15.57;14.00;;;2.40;99.90;;;3.31;88.15;98747.44;5173873;28;20217;-77
2020/12/18 08:07:45;;;;;;;14.13;12.63;;;2.30;99.90;;;3.26;88.61;98752.75;5186986;28;20209;-76
2020/12/18 08:10:17;;;;;;;15.37;13.87;;;2.40;99.90;;;3.26;89.33;98750.25;5186319;28;20199;-77
2020/12/18 08:12:50;;;;;;;17.23;15.30;;;2.30;99.90;;;3.29;88.52;98758.13;5186983;28;20214;-77
2020/12/18 08:15:22;;;;;;;14.87;13.53;;;2.30;99.90;;;3.28;88.17;98751.28;5186345;28;20226;-77
2020/12/18 08:17:59;;;;;;;16.47;15.07;;;2.30;99.90;;;3.28;89.05;98759.75;5180810;28;20225;-77
2020/12/18 08:20:31;;;;;;;16.83;15.23;;;2.40;99.90;;;3.28;88.92;98743.72;5173068;28;20608;-77
2020/12/18 08:23:04;;;;;;;16.93;15.40;;;2.40;99.90;;;3.29;88.52;98753.06;5178505;28;20211;-76
2020/12/18 08:25:55;;;;;;;15.00;13.60;;;2.50;99.90;;;3.39;88.19;98750.72;5185316;28;20201;-77
2020/12/18 08:28:29;;;;;;;16.07;14.47;;;2.50;99.90;;;3.43;88.17;98752.81;5177760;28;20230;-78
2020/12/18 08:31:06;;;;;;;16.40;14.80;;;2.50;99.90;;;3.50;88.11;98750.16;5186299;28;20229;-77
2020/12/18 08:33:50;;;;;;;15.77;14.27;;;2.50;99.90;;;3.51;87.84;98756.97;5183183;28;20219;-77
2020/12/18 08:36:25;;;;;;;16.53;15.07;;;2.50;99.90;;;3.61;88.21;98752.09;5186446;28;20202;-77
2020/12/18 08:39:04;;;;;;;16.10;14.70;;;2.60;99.90;;;3.66;88.13;98756.69;5185168;28;20203;-77
2020/12/18 08:41:46;;;;;;;15.70;14.30;;;2.60;99.90;;;3.83;87.27;98759.25;5185775;28;20191;-78
2020/12/18 08:44:20;;;;;;;14.93;13.63;;;2.70;99.90;;;3.88;87.48;98755.53;5186265;28;20213;-78
2020/12/18 08:46:52;;;;;;;15.83;14.33;;;2.80;99.90;;;3.90;87.20;98749.00;5186801;28;20200;-77
2020/12/18 08:49:27;;;;;;;15.93;14.53;;;2.90;99.90;;;3.81;87.39;98755.69;5186832;28;20204;-77
2020/12/18 08:52:04;;;;;;;13.83;12.63;;;2.90;99.90;;;3.84;86.93;98766.09;5186100;28;20195;-77
2020/12/18 08:54:38;;;;;;;13.97;12.60;;;2.90;99.90;;;3.86;87.44;98757.00;5186593;28;20224;-77
2020/12/18 08:57:23;;;;;;;14.80;13.40;;;2.90;99.90;;;3.87;87.83;98751.22;5187098;28;20676;-77
2020/12/18 09:00:16;;;;;;;15.63;14.20;;;3.00;99.90;;;3.94;87.56;98766.22;5186667;28;20220;-79
2020/12/18 09:02:57;;;;;;;14.53;13.20;;;3.00;99.90;;;4.00;87.67;98760.88;5187800;28;20287;-77
2020/12/18 09:05:31;;;;;;;15.80;14.20;;;3.10;99.90;;;4.05;87.34;98750.47;5187893;28;20214;-78
2020/12/18 09:08:06;;;;;;;16.23;14.73;;;3.10;99.90;;;4.03;87.74;98761.16;5187480;28;20203;-77
2020/12/18 09:10:40;;;;;;;15.10;13.60;;;3.30;99.90;;;4.12;88.17;98751.03;5186810;28;20207;-77
2020/12/18 09:13:18;;;;;;;14.90;13.43;;;3.40;99.90;;;4.24;88.36;98752.25;5187137;28;20556;-78
2020/12/18 09:16:04;;;;;;;14.13;12.83;;;3.50;99.90;;;4.35;88.26;98759.22;5187555;28;20232;-77
2020/12/18 09:18:37;;;;;;;14.97;13.67;;;3.60;99.90;;;4.35;87.09;98750.72;5186550;28;20194;-78
2020/12/18 09:21:12;;;;;;;13.33;12.23;;;3.50;99.90;;;4.35;87.30;98761.75;5178913;28;20661;-78
2020/12/18 09:23:47;;;;;;;13.70;12.57;;;3.50;99.90;;;4.36;87.29;98753.41;5175020;28;20672;-78
2020/12/18 09:26:32;;;;;;;15.30;13.87;;;3.50;99.90;;;4.42;87.47;98748.91;5184524;28;20531;-77
2020/12/18 09:29:15;;;;;;;15.70;14.30;;;3.60;99.90;;;4.58;87.93;98751.28;5186479;28;20704;-77
2020/12/18 09:31:47;;;;;;;14.37;13.00;;;3.70;99.90;;;4.72;87.62;98742.41;5186836;28;20206;-78
2020/12/18 09:34:19;;;;;;;14.10;12.83;;;3.80;99.90;;;4.72;87.66;98745.88;5181531;28;20741;-77
2020/12/18 09:36:51;;;;;;;14.37;13.07;;;3.90;99.90;;;4.76;88.46;98746.16;5177817;28;20203;-77
2020/12/18 09:39:24;;;;;;;14.33;13.00;;;4.00;99.90;;;4.81;88.50;98750.91;5184461;28;20201;-77
2020/12/18 09:41:56;;;;;;;15.17;13.70;;;4.00;99.90;;;4.90;88.63;98746.69;5190047;28;20209;-78
2020/12/18 09:44:28;;;;;;;16.30;14.80;;;4.10;99.90;;;4.97;88.84;98745.63;5186306;28;20600;-79
2020/12/18 09:47:00;;;;;;;15.53;14.13;;;4.20;99.90;;;5.13;88.39;98740.34;5185904;28;20210;-78
2020/12/18 09:49:32;;;;;;;15.93;14.43;;;4.40;99.90;;;5.25;87.98;98745.63;5185232;28;20217;-77
2020/12/18 09:52:04;;;;;;;16.53;14.97;;;4.40;99.90;;;5.34;88.20;98749.00;5185017;28;20199;-79
2020/12/18 09:54:37;;;;;;;15.83;14.33;;;4.50;99.90;;;5.43;88.24;98742.22;5180719;28;20618;-78
2020/12/18 09:57:09;;;;;;;15.17;13.80;;;4.50;99.90;;;5.51;88.33;98735.34;5185187;28;20601;-78
2020/12/18 09:59:41;;;;;;;15.47;14.07;;;4.70;99.90;;;5.56;87.67;98739.19;5185338;28;20198;-78
2020/12/18 10:02:13;;;;;;;15.90;14.37;;;4.70;99.90;;;5.65;88.02;98732.41;5185223;28;20240;-77
2020/12/18 10:04:44;;;;;;;15.87;14.33;;;4.80;99.90;;;5.73;87.80;98723.84;5185196;28;20227;-78
2020/12/18 10:07:16;;;;;;;15.80;14.20;;;4.90;99.90;;;5.79;88.05;98714.22;5178807;28;20196;-77
2020/12/18 10:09:50;;;;;;;14.80;13.57;;;5.00;99.90;;;5.85;88.33;98708.81;5181220;28;20289;-78
2020/12/18 10:12:21;;;;;;;15.70;14.23;;;5.10;99.90;;;6.06;87.26;98702.22;5184700;28;20198;-78
2020/12/18 10:14:53;;;;;;;16.30;14.70;;;5.20;99.90;;;6.07;87.48;98704.03;5184705;28;20230;-78
2020/12/18 10:17:25;;;;;;;17.57;15.77;;;5.30;99.90;;;6.12;87.12;98710.38;5184482;28;20206;-79
2020/12/18 10:19:57;;;;;;;17.50;15.87;;;5.30;99.90;;;6.17;88.03;98696.44;5184466;28;20233;-78
2020/12/18 10:22:29;;;;;;;16.37;14.83;;;5.40;99.90;;;6.32;87.87;98697.81;5183523;28;20427;-78
2020/12/18 10:25:02;;;;;;;16.67;15.07;;;5.50;99.90;;;6.33;87.23;98696.16;5181244;28;20223;-78
2020/12/18 10:27:35;;;;;;;16.40;15.00;;;5.60;99.90;;;6.46;87.22;98691.34;5184766;28;20217;-78
2020/12/18 10:30:08;;;;;;;16.37;14.80;;;5.70;99.90;;;6.66;87.33;98695.59;5184666;28;20202;-79
2020/12/18 10:32:41;;;;;;;16.43;14.83;;;5.90;99.90;;;6.71;87.60;98686.75;5184498;28;20205;-78
2020/12/18 10:35:14;;;;;;;18.40;16.50;;;6.00;99.90;;;6.86;87.58;98687.13;5183067;28;20214;-78
2020/12/18 10:37:47;;;;;;;17.57;15.97;;;6.20;99.90;;;7.02;86.57;98678.28;5176483;28;20194;-78
2020/12/18 10:40:20;;;;;;;18.30;16.50;;;6.30;99.90;;;7.15;86.61;98682.00;5180739;28;20288;-78
2020/12/18 10:42:52;;;;;;;17.97;16.27;;;6.50;99.90;;;7.26;86.92;98682.84;5184425;28;20194;-79
2020/12/18 10:45:24;;;;;;;17.40;15.67;;;6.60;99.90;;;7.43;86.69;98679.16;5183525;28;20218;-79
2020/12/18 10:47:56;;;;;;;17.70;16.00;;;6.70;99.90;;;7.52;85.95;98679.91;5185204;28;20203;-79